sensor_id;sensor_type;location;lat;lon;timestamp;P1;durP1;ratioP1;P2;durP2;ratioP2
70576;SDS011;58138;43.138;24.702;2023-03-23T00:01:03;42.90;;;28.50;;
70576;SDS011;58138;43.138;24.702;2023-03-23T00:03:30;43.78;;;28.35;;
70576;SDS011;58138;43.138;24.702;2023-03-23T00:05:59;43.88;;;30.60;;
70576;SDS011;58138;43.138;24.702;2023-03-23T00:08:38;50.97;;;32.75;;
70576;SDS011;58138;43.138;24.702;2023-03-23T00:11:13;43.85;;;29.55;;
70576;SDS011;58138;43.138;24.702;2023-03-23T00:13:41;44.88;;;29.85;;
70576;SDS011;58138;43.138;24.702;2023-03-23T00:16:07;44.90;;;28.83;;
70576;SDS011;58138;43.138;24.702;2023-03-23T00:18:42;40.97;;;26.70;;
70576;SDS011;58138;43.138;24.702;2023-03-23T00:21:09;46.03;;;28.50;;
70576;SDS011;58138;43.138;24.702;2023-03-23T00:23:34;42.80;;;29.48;;
70576;SDS011;58138;43.138;24.702;2023-03-23T00:26:00;43.58;;;29.77;;
70576;SDS011;58138;43.138;24.702;2023-03-23T00:28:27;42.60;;;28.63;;
70576;SDS011;58138;43.138;24.702;2023-03-23T00:35:52;40.45;;;27.30;;
70576;SDS011;58138;43.138;24.702;2023-03-23T00:38:19;39.20;;;27.75;;
70576;SDS011;58138;43.138;24.702;2023-03-23T00:40:45;45.55;;;29.48;;
70576;SDS011;58138;43.138;24.702;2023-03-23T00:43:13;45.50;;;30.40;;
70576;SDS011;58138;43.138;24.702;2023-03-23T00:45:40;45.75;;;30.85;;
70576;SDS011;58138;43.138;24.702;2023-03-23T00:48:06;49.25;;;31.73;;
70576;SDS011;58138;43.138;24.702;2023-03-23T00:50:31;50.60;;;33.00;;
70576;SDS011;58138;43.138;24.702;2023-03-23T00:52:57;50.55;;;33.47;;
70576;SDS011;58138;43.138;24.702;2023-03-23T00:55:24;49.42;;;32.55;;
70576;SDS011;58138;43.138;24.702;2023-03-23T00:57:50;47.58;;;32.40;;
70576;SDS011;58138;43.138;24.702;2023-03-23T01:00:16;51.45;;;33.17;;
70576;SDS011;58138;43.138;24.702;2023-03-23T01:02:44;46.67;;;30.70;;
70576;SDS011;58138;43.138;24.702;2023-03-23T01:05:10;42.38;;;29.10;;
70576;SDS011;58138;43.138;24.702;2023-03-23T01:07:36;42.75;;;30.77;;
70576;SDS011;58138;43.138;24.702;2023-03-23T01:10:03;42.28;;;29.05;;
70576;SDS011;58138;43.138;24.702;2023-03-23T01:12:29;41.33;;;28.52;;
70576;SDS011;58138;43.138;24.702;2023-03-23T01:14:55;40.78;;;28.38;;
70576;SDS011;58138;43.138;24.702;2023-03-23T01:17:21;41.35;;;28.60;;
70576;SDS011;58138;43.138;24.702;2023-03-23T01:19:46;40.65;;;28.23;;
70576;SDS011;58138;43.138;24.702;2023-03-23T01:22:12;39.78;;;28.48;;
70576;SDS011;58138;43.138;24.702;2023-03-23T01:24:38;41.85;;;28.50;;
70576;SDS011;58138;43.138;24.702;2023-03-23T01:27:03;43.38;;;29.38;;
70576;SDS011;58138;43.138;24.702;2023-03-23T01:29:34;47.47;;;30.42;;
70576;SDS011;58138;43.138;24.702;2023-03-23T01:32:00;44.97;;;30.77;;
70576;SDS011;58138;43.138;24.702;2023-03-23T01:34:27;45.58;;;31.42;;
70576;SDS011;58138;43.138;24.702;2023-03-23T01:36:52;48.88;;;32.60;;
70576;SDS011;58138;43.138;24.702;2023-03-23T01:39:18;53.53;;;33.67;;
70576;SDS011;58138;43.138;24.702;2023-03-23T01:41:43;54.50;;;34.03;;
70576;SDS011;58138;43.138;24.702;2023-03-23T01:46:41;51.33;;;33.95;;
70576;SDS011;58138;43.138;24.702;2023-03-23T01:49:13;49.80;;;31.65;;
70576;SDS011;58138;43.138;24.702;2023-03-23T01:51:49;46.25;;;31.30;;
70576;SDS011;58138;43.138;24.702;2023-03-23T01:54:18;49.22;;;32.25;;
70576;SDS011;58138;43.138;24.702;2023-03-23T01:56:47;48.72;;;32.10;;
70576;SDS011;58138;43.138;24.702;2023-03-23T01:59:15;47.53;;;31.95;;
70576;SDS011;58138;43.138;24.702;2023-03-23T02:01:41;50.25;;;32.58;;
70576;SDS011;58138;43.138;24.702;2023-03-23T02:04:10;47.92;;;31.75;;
70576;SDS011;58138;43.138;24.702;2023-03-23T02:06:40;51.60;;;32.92;;
70576;SDS011;58138;43.138;24.702;2023-03-23T02:09:06;51.00;;;32.75;;
70576;SDS011;58138;43.138;24.702;2023-03-23T02:11:32;49.00;;;32.63;;
70576;SDS011;58138;43.138;24.702;2023-03-23T02:13:58;47.30;;;31.02;;
70576;SDS011;58138;43.138;24.702;2023-03-23T02:24:27;51.22;;;33.20;;
70576;SDS011;58138;43.138;24.702;2023-03-23T02:27:17;45.28;;;31.15;;
70576;SDS011;58138;43.138;24.702;2023-03-23T02:30:04;47.95;;;31.67;;
70576;SDS011;58138;43.138;24.702;2023-03-23T02:35:43;43.85;;;29.33;;
70576;SDS011;58138;43.138;24.702;2023-03-23T02:38:26;46.47;;;31.48;;
70576;SDS011;58138;43.138;24.702;2023-03-23T02:40:55;47.83;;;31.13;;
70576;SDS011;58138;43.138;24.702;2023-03-23T02:43:22;51.83;;;32.85;;
70576;SDS011;58138;43.138;24.702;2023-03-23T02:45:49;51.30;;;32.85;;
70576;SDS011;58138;43.138;24.702;2023-03-23T02:48:16;48.78;;;31.55;;
70576;SDS011;58138;43.138;24.702;2023-03-23T02:50:45;54.42;;;36.10;;
70576;SDS011;58138;43.138;24.702;2023-03-23T02:53:13;67.88;;;43.20;;
70576;SDS011;58138;43.138;24.702;2023-03-23T02:55:41;65.63;;;41.30;;
70576;SDS011;58138;43.138;24.702;2023-03-23T02:58:08;64.75;;;40.85;;
70576;SDS011;58138;43.138;24.702;2023-03-23T03:00:34;58.17;;;38.10;;
70576;SDS011;58138;43.138;24.702;2023-03-23T03:02:59;51.50;;;35.63;;
70576;SDS011;58138;43.138;24.702;2023-03-23T03:08:35;55.05;;;35.47;;
70576;SDS011;58138;43.138;24.702;2023-03-23T03:11:14;49.30;;;32.08;;
70576;SDS011;58138;43.138;24.702;2023-03-23T03:17:03;50.60;;;31.83;;
70576;SDS011;58138;43.138;24.702;2023-03-23T03:19:34;50.70;;;32.40;;
70576;SDS011;58138;43.138;24.702;2023-03-23T03:22:03;51.45;;;33.40;;
70576;SDS011;58138;43.138;24.702;2023-03-23T03:24:29;51.72;;;32.83;;
70576;SDS011;58138;43.138;24.702;2023-03-23T03:26:57;53.08;;;32.50;;
70576;SDS011;58138;43.138;24.702;2023-03-23T03:29:32;54.28;;;34.08;;
70576;SDS011;58138;43.138;24.702;2023-03-23T03:31:59;52.10;;;33.22;;
70576;SDS011;58138;43.138;24.702;2023-03-23T03:34:26;53.40;;;32.70;;
70576;SDS011;58138;43.138;24.702;2023-03-23T03:36:54;50.13;;;32.63;;
70576;SDS011;58138;43.138;24.702;2023-03-23T03:39:20;56.33;;;35.60;;
70576;SDS011;58138;43.138;24.702;2023-03-23T03:41:46;58.35;;;35.10;;
70576;SDS011;58138;43.138;24.702;2023-03-23T03:44:12;52.78;;;35.50;;
70576;SDS011;58138;43.138;24.702;2023-03-23T03:46:38;58.78;;;37.15;;
70576;SDS011;58138;43.138;24.702;2023-03-23T03:49:06;59.97;;;37.10;;
70576;SDS011;58138;43.138;24.702;2023-03-23T03:51:32;55.15;;;34.40;;
70576;SDS011;58138;43.138;24.702;2023-03-23T03:53:59;57.25;;;36.17;;
70576;SDS011;58138;43.138;24.702;2023-03-23T03:56:25;54.47;;;35.53;;
70576;SDS011;58138;43.138;24.702;2023-03-23T03:58:51;53.85;;;35.83;;
70576;SDS011;58138;43.138;24.702;2023-03-23T04:01:17;57.47;;;36.03;;
70576;SDS011;58138;43.138;24.702;2023-03-23T04:03:44;57.55;;;36.17;;
70576;SDS011;58138;43.138;24.702;2023-03-23T04:06:10;59.38;;;37.35;;
70576;SDS011;58138;43.138;24.702;2023-03-23T04:08:37;62.42;;;38.55;;
70576;SDS011;58138;43.138;24.702;2023-03-23T04:11:04;69.78;;;39.90;;
70576;SDS011;58138;43.138;24.702;2023-03-23T04:13:30;56.38;;;35.40;;
70576;SDS011;58138;43.138;24.702;2023-03-23T04:15:56;58.63;;;36.50;;
70576;SDS011;58138;43.138;24.702;2023-03-23T04:18:21;54.40;;;35.17;;
70576;SDS011;58138;43.138;24.702;2023-03-23T04:20:48;57.65;;;36.20;;
70576;SDS011;58138;43.138;24.702;2023-03-23T04:23:15;61.28;;;37.30;;
70576;SDS011;58138;43.138;24.702;2023-03-23T04:25:48;63.38;;;39.60;;
70576;SDS011;58138;43.138;24.702;2023-03-23T04:28:15;61.33;;;39.10;;
70576;SDS011;58138;43.138;24.702;2023-03-23T04:30:48;68.22;;;42.50;;
70576;SDS011;58138;43.138;24.702;2023-03-23T04:33:27;65.07;;;40.10;;
70576;SDS011;58138;43.138;24.702;2023-03-23T04:35:55;61.83;;;39.55;;
70576;SDS011;58138;43.138;24.702;2023-03-23T04:38:22;65.75;;;41.53;;
70576;SDS011;58138;43.138;24.702;2023-03-23T04:40:50;64.70;;;40.53;;
70576;SDS011;58138;43.138;24.702;2023-03-23T04:43:17;65.55;;;40.88;;
70576;SDS011;58138;43.138;24.702;2023-03-23T04:45:55;65.20;;;40.90;;
70576;SDS011;58138;43.138;24.702;2023-03-23T04:48:25;73.13;;;43.72;;
70576;SDS011;58138;43.138;24.702;2023-03-23T04:50:51;76.07;;;44.03;;
70576;SDS011;58138;43.138;24.702;2023-03-23T04:53:17;75.80;;;45.30;;
70576;SDS011;58138;43.138;24.702;2023-03-23T04:55:43;72.50;;;43.97;;
70576;SDS011;58138;43.138;24.702;2023-03-23T04:58:09;78.30;;;46.85;;
70576;SDS011;58138;43.138;24.702;2023-03-23T05:00:39;78.68;;;44.08;;
70576;SDS011;58138;43.138;24.702;2023-03-23T05:03:05;80.32;;;43.67;;
70576;SDS011;58138;43.138;24.702;2023-03-23T05:05:32;68.25;;;41.40;;
70576;SDS011;58138;43.138;24.702;2023-03-23T05:07:59;69.60;;;40.53;;
70576;SDS011;58138;43.138;24.702;2023-03-23T05:10:25;70.78;;;41.05;;
70576;SDS011;58138;43.138;24.702;2023-03-23T05:12:52;68.28;;;40.13;;
70576;SDS011;58138;43.138;24.702;2023-03-23T05:15:18;67.38;;;39.85;;
70576;SDS011;58138;43.138;24.702;2023-03-23T05:17:43;66.32;;;38.92;;
70576;SDS011;58138;43.138;24.702;2023-03-23T05:20:10;71.05;;;40.10;;
70576;SDS011;58138;43.138;24.702;2023-03-23T05:22:37;62.30;;;38.83;;
70576;SDS011;58138;43.138;24.702;2023-03-23T05:25:04;58.10;;;37.65;;
70576;SDS011;58138;43.138;24.702;2023-03-23T05:27:31;62.85;;;39.15;;
70576;SDS011;58138;43.138;24.702;2023-03-23T05:29:57;60.00;;;37.58;;
70576;SDS011;58138;43.138;24.702;2023-03-23T05:32:26;65.88;;;40.08;;
70576;SDS011;58138;43.138;24.702;2023-03-23T05:34:55;66.65;;;42.00;;
70576;SDS011;58138;43.138;24.702;2023-03-23T05:37:21;72.45;;;46.38;;
70576;SDS011;58138;43.138;24.702;2023-03-23T05:39:47;68.65;;;43.95;;
70576;SDS011;58138;43.138;24.702;2023-03-23T05:42:13;105.13;;;59.38;;
70576;SDS011;58138;43.138;24.702;2023-03-23T05:44:38;141.77;;;80.22;;
70576;SDS011;58138;43.138;24.702;2023-03-23T05:47:03;88.95;;;55.60;;
70576;SDS011;58138;43.138;24.702;2023-03-23T05:49:30;80.88;;;50.03;;
70576;SDS011;58138;43.138;24.702;2023-03-23T05:51:55;78.55;;;49.17;;
70576;SDS011;58138;43.138;24.702;2023-03-23T05:54:21;79.60;;;46.47;;
70576;SDS011;58138;43.138;24.702;2023-03-23T05:56:46;74.40;;;48.35;;
70576;SDS011;58138;43.138;24.702;2023-03-23T05:59:14;70.50;;;44.85;;
70576;SDS011;58138;43.138;24.702;2023-03-23T06:01:39;75.15;;;46.40;;
70576;SDS011;58138;43.138;24.702;2023-03-23T06:04:05;68.28;;;42.97;;
70576;SDS011;58138;43.138;24.702;2023-03-23T06:06:30;67.18;;;42.25;;
70576;SDS011;58138;43.138;24.702;2023-03-23T06:08:57;60.90;;;38.03;;
70576;SDS011;58138;43.138;24.702;2023-03-23T06:11:23;68.85;;;44.58;;
70576;SDS011;58138;43.138;24.702;2023-03-23T06:13:49;68.18;;;42.15;;
70576;SDS011;58138;43.138;24.702;2023-03-23T06:16:15;65.88;;;41.15;;
70576;SDS011;58138;43.138;24.702;2023-03-23T06:18:40;65.53;;;41.90;;
70576;SDS011;58138;43.138;24.702;2023-03-23T06:21:07;57.47;;;38.83;;
70576;SDS011;58138;43.138;24.702;2023-03-23T06:23:34;61.95;;;39.50;;
70576;SDS011;58138;43.138;24.702;2023-03-23T06:26:00;58.35;;;37.83;;
70576;SDS011;58138;43.138;24.702;2023-03-23T06:28:28;48.70;;;33.65;;
70576;SDS011;58138;43.138;24.702;2023-03-23T06:30:54;54.78;;;35.78;;
70576;SDS011;58138;43.138;24.702;2023-03-23T06:33:20;55.28;;;35.10;;
70576;SDS011;58138;43.138;24.702;2023-03-23T06:35:45;58.88;;;36.20;;
70576;SDS011;58138;43.138;24.702;2023-03-23T06:38:11;50.60;;;35.78;;
70576;SDS011;58138;43.138;24.702;2023-03-23T06:40:37;58.35;;;39.03;;
70576;SDS011;58138;43.138;24.702;2023-03-23T06:43:03;63.80;;;40.85;;
70576;SDS011;58138;43.138;24.702;2023-03-23T06:45:29;62.63;;;41.97;;
70576;SDS011;58138;43.138;24.702;2023-03-23T06:47:55;63.08;;;43.22;;
70576;SDS011;58138;43.138;24.702;2023-03-23T06:50:21;65.82;;;44.42;;
70576;SDS011;58138;43.138;24.702;2023-03-23T06:52:47;61.20;;;44.65;;
70576;SDS011;58138;43.138;24.702;2023-03-23T06:55:13;55.67;;;36.35;;
70576;SDS011;58138;43.138;24.702;2023-03-23T06:57:40;59.42;;;38.38;;
70576;SDS011;58138;43.138;24.702;2023-03-23T07:00:06;64.82;;;42.60;;
70576;SDS011;58138;43.138;24.702;2023-03-23T07:02:39;59.10;;;39.03;;
70576;SDS011;58138;43.138;24.702;2023-03-23T07:05:05;58.47;;;37.50;;
70576;SDS011;58138;43.138;24.702;2023-03-23T07:07:32;60.42;;;39.08;;
70576;SDS011;58138;43.138;24.702;2023-03-23T07:09:57;63.53;;;39.25;;
70576;SDS011;58138;43.138;24.702;2023-03-23T07:12:23;56.67;;;37.33;;
70576;SDS011;58138;43.138;24.702;2023-03-23T07:14:49;54.00;;;35.83;;
70576;SDS011;58138;43.138;24.702;2023-03-23T07:17:14;56.42;;;38.08;;
70576;SDS011;58138;43.138;24.702;2023-03-23T07:19:40;95.20;;;63.40;;
70576;SDS011;58138;43.138;24.702;2023-03-23T07:22:06;68.90;;;43.60;;
70576;SDS011;58138;43.138;24.702;2023-03-23T07:24:32;86.78;;;56.33;;
70576;SDS011;58138;43.138;24.702;2023-03-23T07:26:58;56.75;;;37.90;;
70576;SDS011;58138;43.138;24.702;2023-03-23T07:29:24;61.17;;;39.60;;
70576;SDS011;58138;43.138;24.702;2023-03-23T07:31:50;62.45;;;38.78;;
70576;SDS011;58138;43.138;24.702;2023-03-23T07:34:16;63.30;;;41.15;;
70576;SDS011;58138;43.138;24.702;2023-03-23T07:36:42;59.90;;;41.10;;
70576;SDS011;58138;43.138;24.702;2023-03-23T07:39:08;56.63;;;37.72;;
70576;SDS011;58138;43.138;24.702;2023-03-23T07:41:33;54.35;;;36.35;;
70576;SDS011;58138;43.138;24.702;2023-03-23T07:43:59;53.88;;;36.65;;
70576;SDS011;58138;43.138;24.702;2023-03-23T07:46:25;54.35;;;36.35;;
70576;SDS011;58138;43.138;24.702;2023-03-23T07:48:51;53.72;;;36.90;;
70576;SDS011;58138;43.138;24.702;2023-03-23T07:51:17;53.72;;;36.97;;
70576;SDS011;58138;43.138;24.702;2023-03-23T07:53:43;54.63;;;36.17;;
70576;SDS011;58138;43.138;24.702;2023-03-23T07:56:12;51.03;;;35.22;;
70576;SDS011;58138;43.138;24.702;2023-03-23T07:58:39;52.33;;;36.38;;
70576;SDS011;58138;43.138;24.702;2023-03-23T08:01:06;47.90;;;32.40;;
70576;SDS011;58138;43.138;24.702;2023-03-23T08:03:32;45.97;;;31.42;;
70576;SDS011;58138;43.138;24.702;2023-03-23T08:05:58;45.03;;;29.55;;
70576;SDS011;58138;43.138;24.702;2023-03-23T08:08:24;40.08;;;29.70;;
70576;SDS011;58138;43.138;24.702;2023-03-23T08:10:50;45.53;;;30.73;;
70576;SDS011;58138;43.138;24.702;2023-03-23T08:13:15;47.60;;;33.85;;
70576;SDS011;58138;43.138;24.702;2023-03-23T08:15:41;44.08;;;30.92;;
70576;SDS011;58138;43.138;24.702;2023-03-23T08:18:07;46.72;;;34.15;;
70576;SDS011;58138;43.138;24.702;2023-03-23T08:20:33;43.35;;;29.95;;
70576;SDS011;58138;43.138;24.702;2023-03-23T08:22:58;41.75;;;31.77;;
70576;SDS011;58138;43.138;24.702;2023-03-23T08:25:24;42.60;;;29.48;;
70576;SDS011;58138;43.138;24.702;2023-03-23T08:27:51;38.20;;;28.63;;
70576;SDS011;58138;43.138;24.702;2023-03-23T08:30:18;42.92;;;30.10;;
70576;SDS011;58138;43.138;24.702;2023-03-23T08:32:45;42.50;;;31.00;;
70576;SDS011;58138;43.138;24.702;2023-03-23T08:35:11;43.15;;;33.45;;
70576;SDS011;58138;43.138;24.702;2023-03-23T08:37:38;39.35;;;28.98;;
70576;SDS011;58138;43.138;24.702;2023-03-23T08:40:04;42.38;;;28.23;;
70576;SDS011;58138;43.138;24.702;2023-03-23T08:42:41;37.40;;;27.70;;
70576;SDS011;58138;43.138;24.702;2023-03-23T08:45:08;33.38;;;24.88;;
70576;SDS011;58138;43.138;24.702;2023-03-23T08:50:06;34.88;;;25.35;;
70576;SDS011;58138;43.138;24.702;2023-03-23T08:52:33;30.60;;;23.80;;
70576;SDS011;58138;43.138;24.702;2023-03-23T08:54:59;35.88;;;25.23;;
70576;SDS011;58138;43.138;24.702;2023-03-23T08:57:25;40.97;;;27.50;;
70576;SDS011;58138;43.138;24.702;2023-03-23T08:59:51;34.05;;;23.65;;
70576;SDS011;58138;43.138;24.702;2023-03-23T09:02:19;35.20;;;27.27;;
70576;SDS011;58138;43.138;24.702;2023-03-23T09:04:45;30.00;;;23.02;;
70576;SDS011;58138;43.138;24.702;2023-03-23T09:07:11;29.27;;;22.77;;
70576;SDS011;58138;43.138;24.702;2023-03-23T09:09:39;26.60;;;20.73;;
70576;SDS011;58138;43.138;24.702;2023-03-23T09:12:06;25.50;;;19.17;;
70576;SDS011;58138;43.138;24.702;2023-03-23T09:14:33;31.55;;;20.52;;
70576;SDS011;58138;43.138;24.702;2023-03-23T09:16:59;30.15;;;23.05;;
70576;SDS011;58138;43.138;24.702;2023-03-23T09:19:26;27.50;;;20.73;;
70576;SDS011;58138;43.138;24.702;2023-03-23T09:21:51;24.85;;;18.70;;
70576;SDS011;58138;43.138;24.702;2023-03-23T09:24:17;26.00;;;19.13;;
70576;SDS011;58138;43.138;24.702;2023-03-23T09:26:44;26.75;;;18.88;;
70576;SDS011;58138;43.138;24.702;2023-03-23T09:29:10;24.35;;;18.75;;
70576;SDS011;58138;43.138;24.702;2023-03-23T09:31:37;24.73;;;17.55;;
70576;SDS011;58138;43.138;24.702;2023-03-23T09:34:05;22.30;;;18.00;;
70576;SDS011;58138;43.138;24.702;2023-03-23T09:36:31;22.80;;;18.45;;
70576;SDS011;58138;43.138;24.702;2023-03-23T09:38:57;26.55;;;20.13;;
70576;SDS011;58138;43.138;24.702;2023-03-23T09:49:58;18.47;;;15.50;;
70576;SDS011;58138;43.138;24.702;2023-03-23T09:55:20;20.55;;;16.85;;
70576;SDS011;58138;43.138;24.702;2023-03-23T09:57:54;16.85;;;13.23;;
70576;SDS011;58138;43.138;24.702;2023-03-23T10:00:36;13.63;;;11.65;;
70576;SDS011;58138;43.138;24.702;2023-03-23T10:05:51;15.30;;;12.10;;
70576;SDS011;58138;43.138;24.702;2023-03-23T10:08:20;21.30;;;13.43;;
70576;SDS011;58138;43.138;24.702;2023-03-23T10:13:31;17.17;;;13.63;;
70576;SDS011;58138;43.138;24.702;2023-03-23T10:16:10;17.35;;;14.48;;
70576;SDS011;58138;43.138;24.702;2023-03-23T10:18:41;19.88;;;13.68;;
70576;SDS011;58138;43.138;24.702;2023-03-23T10:21:11;14.45;;;12.20;;
70576;SDS011;58138;43.138;24.702;2023-03-23T10:29:26;15.88;;;11.80;;
70576;SDS011;58138;43.138;24.702;2023-03-23T10:31:47;15.75;;;11.55;;
70576;SDS011;58138;43.138;24.702;2023-03-23T10:39:55;21.35;;;14.13;;
70576;SDS011;58138;43.138;24.702;2023-03-23T10:42:26;16.98;;;12.48;;
70576;SDS011;58138;43.138;24.702;2023-03-23T10:44:52;18.25;;;11.38;;
70576;SDS011;58138;43.138;24.702;2023-03-23T10:47:19;17.00;;;11.02;;
70576;SDS011;58138;43.138;24.702;2023-03-23T10:49:58;26.77;;;14.48;;
70576;SDS011;58138;43.138;24.702;2023-03-23T10:52:43;17.50;;;12.05;;
70576;SDS011;58138;43.138;24.702;2023-03-23T10:58:02;14.18;;;10.32;;
70576;SDS011;58138;43.138;24.702;2023-03-23T11:00:27;16.65;;;11.52;;
70576;SDS011;58138;43.138;24.702;2023-03-23T11:05:24;14.15;;;11.05;;
70576;SDS011;58138;43.138;24.702;2023-03-23T11:07:55;12.23;;;9.73;;
70576;SDS011;58138;43.138;24.702;2023-03-23T11:10:38;15.20;;;10.07;;
70576;SDS011;58138;43.138;24.702;2023-03-23T11:13:10;16.50;;;10.13;;
70576;SDS011;58138;43.138;24.702;2023-03-23T11:15:39;14.65;;;9.75;;
70576;SDS011;58138;43.138;24.702;2023-03-23T11:18:09;9.88;;;8.60;;
70576;SDS011;58138;43.138;24.702;2023-03-23T11:20:37;16.05;;;10.38;;
70576;SDS011;58138;43.138;24.702;2023-03-23T11:23:10;13.32;;;9.95;;
70576;SDS011;58138;43.138;24.702;2023-03-23T11:28:28;12.15;;;9.68;;
70576;SDS011;58138;43.138;24.702;2023-03-23T11:30:56;11.40;;;9.65;;
70576;SDS011;58138;43.138;24.702;2023-03-23T11:33:24;14.73;;;11.07;;
70576;SDS011;58138;43.138;24.702;2023-03-23T11:35:51;11.13;;;9.20;;
70576;SDS011;58138;43.138;24.702;2023-03-23T11:38:19;13.40;;;10.20;;
70576;SDS011;58138;43.138;24.702;2023-03-23T11:40:51;12.77;;;10.10;;
70576;SDS011;58138;43.138;24.702;2023-03-23T11:43:22;12.65;;;9.85;;
70576;SDS011;58138;43.138;24.702;2023-03-23T11:51:30;12.35;;;9.13;;
70576;SDS011;58138;43.138;24.702;2023-03-23T11:56:41;13.13;;;9.45;;
70576;SDS011;58138;43.138;24.702;2023-03-23T11:59:27;10.98;;;8.80;;
70576;SDS011;58138;43.138;24.702;2023-03-23T12:01:56;11.93;;;8.77;;
70576;SDS011;58138;43.138;24.702;2023-03-23T12:07:17;16.27;;;8.38;;
70576;SDS011;58138;43.138;24.702;2023-03-23T12:12:36;10.75;;;8.38;;
70576;SDS011;58138;43.138;24.702;2023-03-23T12:24:31;16.23;;;10.25;;
70576;SDS011;58138;43.138;24.702;2023-03-23T12:35:29;18.40;;;10.35;;
70576;SDS011;58138;43.138;24.702;2023-03-23T12:43:05;18.35;;;15.68;;
70576;SDS011;58138;43.138;24.702;2023-03-23T12:48:20;15.48;;;12.45;;
70576;SDS011;58138;43.138;24.702;2023-03-23T12:53:56;15.95;;;11.82;;
70576;SDS011;58138;43.138;24.702;2023-03-23T12:59:14;13.40;;;9.05;;
70576;SDS011;58138;43.138;24.702;2023-03-23T13:01:43;20.88;;;10.27;;
70576;SDS011;58138;43.138;24.702;2023-03-23T13:04:18;12.60;;;9.60;;
70576;SDS011;58138;43.138;24.702;2023-03-23T13:06:53;14.98;;;10.18;;
70576;SDS011;58138;43.138;24.702;2023-03-23T13:11:59;9.95;;;8.50;;
70576;SDS011;58138;43.138;24.702;2023-03-23T13:14:59;8.40;;;7.50;;
70576;SDS011;58138;43.138;24.702;2023-03-23T13:17:37;8.48;;;7.40;;
70576;SDS011;58138;43.138;24.702;2023-03-23T13:26:12;10.15;;;8.30;;
70576;SDS011;58138;43.138;24.702;2023-03-23T13:28:48;11.77;;;8.32;;
70576;SDS011;58138;43.138;24.702;2023-03-23T13:32:03;10.80;;;7.82;;
70576;SDS011;58138;43.138;24.702;2023-03-23T13:39:30;9.02;;;7.22;;
70576;SDS011;58138;43.138;24.702;2023-03-23T13:50:05;10.15;;;7.30;;
70576;SDS011;58138;43.138;24.702;2023-03-23T13:55:16;11.95;;;6.82;;
70576;SDS011;58138;43.138;24.702;2023-03-23T13:58:08;10.93;;;7.25;;
70576;SDS011;58138;43.138;24.702;2023-03-23T14:00:49;9.75;;;7.47;;
70576;SDS011;58138;43.138;24.702;2023-03-23T14:03:32;10.13;;;7.55;;
70576;SDS011;58138;43.138;24.702;2023-03-23T14:06:03;9.90;;;7.53;;
70576;SDS011;58138;43.138;24.702;2023-03-23T14:10:58;11.43;;;7.78;;
70576;SDS011;58138;43.138;24.702;2023-03-23T14:16:17;8.13;;;7.32;;
70576;SDS011;58138;43.138;24.702;2023-03-23T14:21:25;11.82;;;8.95;;
70576;SDS011;58138;43.138;24.702;2023-03-23T14:24:05;12.18;;;10.05;;
70576;SDS011;58138;43.138;24.702;2023-03-23T14:26:34;17.13;;;11.55;;
70576;SDS011;58138;43.138;24.702;2023-03-23T14:29:01;27.05;;;15.27;;
70576;SDS011;58138;43.138;24.702;2023-03-23T14:31:27;9.00;;;7.63;;
70576;SDS011;58138;43.138;24.702;2023-03-23T14:33:53;11.10;;;8.15;;
70576;SDS011;58138;43.138;24.702;2023-03-23T14:36:21;7.88;;;6.93;;
70576;SDS011;58138;43.138;24.702;2023-03-23T14:38:48;10.05;;;8.63;;
70576;SDS011;58138;43.138;24.702;2023-03-23T14:41:35;15.23;;;10.10;;
70576;SDS011;58138;43.138;24.702;2023-03-23T14:44:01;41.65;;;28.00;;
70576;SDS011;58138;43.138;24.702;2023-03-23T14:46:29;26.88;;;17.02;;
70576;SDS011;58138;43.138;24.702;2023-03-23T14:48:55;13.38;;;7.85;;
70576;SDS011;58138;43.138;24.702;2023-03-23T14:51:21;14.38;;;8.93;;
70576;SDS011;58138;43.138;24.702;2023-03-23T14:53:47;12.57;;;7.43;;
70576;SDS011;58138;43.138;24.702;2023-03-23T14:56:20;11.75;;;8.95;;
70576;SDS011;58138;43.138;24.702;2023-03-23T14:58:51;16.13;;;8.70;;
70576;SDS011;58138;43.138;24.702;2023-03-23T15:01:26;9.38;;;7.22;;
70576;SDS011;58138;43.138;24.702;2023-03-23T15:04:08;8.82;;;7.18;;
70576;SDS011;58138;43.138;24.702;2023-03-23T15:06:36;12.65;;;7.10;;
70576;SDS011;58138;43.138;24.702;2023-03-23T15:09:07;13.07;;;7.68;;
70576;SDS011;58138;43.138;24.702;2023-03-23T15:11:37;8.43;;;6.85;;
70576;SDS011;58138;43.138;24.702;2023-03-23T15:14:22;7.38;;;6.50;;
70576;SDS011;58138;43.138;24.702;2023-03-23T15:16:55;14.48;;;6.00;;
70576;SDS011;58138;43.138;24.702;2023-03-23T15:19:27;9.27;;;6.28;;
70576;SDS011;58138;43.138;24.702;2023-03-23T15:21:55;9.75;;;6.03;;
70576;SDS011;58138;43.138;24.702;2023-03-23T15:24:26;7.15;;;5.72;;
70576;SDS011;58138;43.138;24.702;2023-03-23T15:26:53;10.27;;;6.07;;
70576;SDS011;58138;43.138;24.702;2023-03-23T15:29:20;11.57;;;6.68;;
70576;SDS011;58138;43.138;24.702;2023-03-23T15:31:49;11.27;;;6.32;;
70576;SDS011;58138;43.138;24.702;2023-03-23T15:34:29;22.42;;;6.95;;
70576;SDS011;58138;43.138;24.702;2023-03-23T15:36:57;13.07;;;6.70;;
70576;SDS011;58138;43.138;24.702;2023-03-23T15:39:25;10.43;;;6.63;;
70576;SDS011;58138;43.138;24.702;2023-03-23T15:41:51;7.82;;;6.13;;
70576;SDS011;58138;43.138;24.702;2023-03-23T15:44:23;16.05;;;6.25;;
70576;SDS011;58138;43.138;24.702;2023-03-23T15:46:50;9.20;;;6.20;;
70576;SDS011;58138;43.138;24.702;2023-03-23T15:49:16;8.88;;;6.20;;
70576;SDS011;58138;43.138;24.702;2023-03-23T15:51:43;10.93;;;6.15;;
70576;SDS011;58138;43.138;24.702;2023-03-23T15:54:13;10.93;;;6.75;;
70576;SDS011;58138;43.138;24.702;2023-03-23T15:56:39;12.20;;;6.93;;
70576;SDS011;58138;43.138;24.702;2023-03-23T15:59:05;8.63;;;6.30;;
70576;SDS011;58138;43.138;24.702;2023-03-23T16:01:32;11.30;;;6.95;;
70576;SDS011;58138;43.138;24.702;2023-03-23T16:06:25;38.28;;;14.48;;
70576;SDS011;58138;43.138;24.702;2023-03-23T16:08:52;37.20;;;19.17;;
70576;SDS011;58138;43.138;24.702;2023-03-23T16:11:21;77.05;;;33.00;;
70576;SDS011;58138;43.138;24.702;2023-03-23T16:13:48;33.33;;;16.55;;
70576;SDS011;58138;43.138;24.702;2023-03-23T16:16:16;33.20;;;15.57;;
70576;SDS011;58138;43.138;24.702;2023-03-23T16:18:43;25.95;;;11.13;;
70576;SDS011;58138;43.138;24.702;2023-03-23T16:21:09;25.00;;;10.70;;
70576;SDS011;58138;43.138;24.702;2023-03-23T16:23:35;28.30;;;13.27;;
70576;SDS011;58138;43.138;24.702;2023-03-23T16:26:00;22.20;;;10.35;;
70576;SDS011;58138;43.138;24.702;2023-03-23T16:28:26;21.88;;;12.25;;
70576;SDS011;58138;43.138;24.702;2023-03-23T16:30:52;33.90;;;13.73;;
70576;SDS011;58138;43.138;24.702;2023-03-23T16:33:17;35.45;;;14.65;;
70576;SDS011;58138;43.138;24.702;2023-03-23T16:35:43;35.60;;;15.23;;
70576;SDS011;58138;43.138;24.702;2023-03-23T16:38:12;45.78;;;14.98;;
70576;SDS011;58138;43.138;24.702;2023-03-23T16:40:40;33.63;;;19.57;;
70576;SDS011;58138;43.138;24.702;2023-03-23T16:43:07;32.72;;;21.15;;